createdAt,value
2019-02-20T00:04:55.766Z,79.31
2019-02-20T00:10:01.055Z,79.45
2019-02-20T00:15:06.728Z,79.40
2019-02-20T00:20:12.017Z,79.07
2019-02-20T00:25:17.349Z,79.20
2019-02-20T00:30:22.691Z,79.59
2019-02-20T00:35:28.116Z,79.39
2019-02-20T00:40:33.391Z,78.85
2019-02-20T00:45:51.351Z,78.78
2019-02-20T00:51:04.766Z,79.23
2019-02-20T00:56:10.137Z,79.63
2019-02-20T01:01:15.582Z,79.85
2019-02-20T01:06:20.951Z,80.09
2019-02-20T01:11:26.637Z,80.34
2019-02-20T01:16:31.962Z,80.68
2019-02-20T01:21:37.268Z,80.91
2019-02-20T01:26:42.678Z,81.40
2019-02-20T01:31:47.963Z,81.60
2019-02-20T01:36:53.366Z,81.69
2019-02-20T01:41:58.953Z,81.67
2019-02-20T01:47:04.242Z,81.47
2019-02-20T01:52:09.865Z,81.30
2019-02-20T01:57:15.277Z,81.46
2019-02-20T02:02:20.674Z,81.71
2019-02-20T02:07:26.037Z,81.61
2019-02-20T02:12:31.733Z,81.52
2019-02-20T02:17:37.051Z,81.54
2019-02-20T02:22:42.417Z,81.42
2019-02-20T02:27:47.792Z,81.40
2019-02-20T02:32:53.274Z,81.50
2019-02-20T02:37:58.590Z,81.78
2019-02-20T02:43:04.013Z,82.00
2019-02-20T02:48:09.327Z,82.22
2019-02-20T02:53:14.671Z,82.48
2019-02-20T02:58:19.999Z,82.53
2019-02-20T03:03:25.523Z,82.66
2019-02-20T03:08:30.801Z,82.56
2019-02-20T03:13:36.107Z,82.38
2019-02-20T03:18:41.489Z,82.28
2019-02-20T03:23:46.856Z,82.25
2019-02-20T03:28:52.121Z,82.14
2019-02-20T03:33:57.494Z,81.92
2019-02-20T03:39:03.536Z,81.82
2019-02-20T03:44:08.837Z,81.79
2019-02-20T03:49:14.116Z,81.86
2019-02-20T03:54:19.462Z,82.34
2019-02-20T03:59:24.786Z,82.42
2019-02-20T04:04:30.117Z,82.48
2019-02-20T04:09:35.412Z,81.87
2019-02-20T04:14:40.971Z,81.85
2019-02-20T04:19:46.417Z,81.93
2019-02-20T04:24:51.682Z,82.50
2019-02-20T04:29:56.991Z,82.76
2019-02-20T04:35:02.377Z,82.81
2019-02-20T04:40:07.848Z,82.84
2019-02-20T04:45:13.204Z,82.84
2019-02-20T04:50:18.491Z,82.77
2019-02-20T04:55:23.847Z,82.64
2019-02-20T05:00:29.207Z,82.59
2019-02-20T05:05:34.635Z,82.65
2019-02-20T05:10:40.094Z,82.72
2019-02-20T05:15:45.520Z,82.74
2019-02-20T05:20:50.848Z,82.73
2019-02-20T05:25:56.167Z,82.63
2019-02-20T05:31:01.414Z,82.54
2019-02-20T05:36:06.778Z,82.54
2019-02-20T05:41:12.121Z,82.56
2019-02-20T05:46:17.495Z,82.40
2019-02-20T05:51:22.861Z,82.34
2019-02-20T05:56:28.275Z,82.14
2019-02-20T06:01:33.487Z,81.89
2019-02-20T06:06:38.884Z,81.65
2019-02-20T06:11:44.296Z,81.65
2019-02-20T06:16:49.756Z,81.68
2019-02-20T06:21:55.010Z,81.76
2019-02-20T06:27:00.367Z,81.97
2019-02-20T06:32:05.606Z,82.36
2019-02-20T06:37:11.028Z,82.32
2019-02-20T06:42:16.344Z,82.34
2019-02-20T06:47:21.751Z,82.53
2019-02-20T06:52:27.166Z,82.62
2019-02-20T06:57:32.694Z,82.66
2019-02-20T07:02:38.005Z,82.84
2019-02-20T07:08:02.438Z,82.88
2019-02-20T07:13:22.286Z,82.90
2019-02-20T07:18:34.470Z,83.14
2019-02-20T07:23:49.362Z,83.51
2019-02-20T07:29:18.156Z,83.72
2019-02-20T07:34:23.451Z,83.71
2019-02-20T07:39:28.872Z,83.88
2019-02-20T07:44:34.262Z,83.79
2019-02-20T07:49:39.656Z,83.88
2019-02-20T07:54:45.132Z,83.90
2019-02-20T07:59:50.658Z,84.00
2019-02-20T08:04:56.018Z,83.99
2019-02-20T08:10:01.341Z,83.96
2019-02-20T08:15:07.511Z,83.96
2019-02-20T08:20:13.196Z,83.79
2019-02-20T08:25:22.865Z,83.60
2019-02-20T08:30:25.793Z,83.53
2019-02-20T08:35:31.220Z,83.86
2019-02-20T08:40:36.727Z,84.39
2019-02-20T08:45:42.049Z,85.15
2019-02-20T08:50:47.447Z,85.94
2019-02-20T08:55:52.637Z,86.61
2019-02-20T09:00:59.139Z,87.08
2019-02-20T09:06:04.517Z,87.38
2019-02-20T09:11:09.810Z,87.59
2019-02-20T09:16:15.241Z,87.84
2019-02-20T09:21:20.709Z,88.08
2019-02-20T09:26:26.061Z,88.24
2019-02-20T09:31:32.796Z,88.39
2019-02-20T09:36:38.148Z,88.52
2019-02-20T09:41:45.498Z,88.58
2019-02-20T09:46:50.843Z,88.65
2019-02-20T09:51:56.237Z,88.70
2019-02-20T09:57:01.543Z,88.81
2019-02-20T10:02:06.887Z,88.83
2019-02-20T10:07:13.450Z,88.50
2019-02-20T10:12:18.826Z,88.39
2019-02-20T10:17:24.113Z,88.00
2019-02-20T10:22:29.460Z,87.78
2019-02-20T10:27:35.155Z,87.65
2019-02-20T10:32:40.646Z,87.34
2019-02-20T10:37:47.935Z,86.84
2019-02-20T10:42:53.334Z,86.46
2019-02-20T10:47:58.791Z,86.22
2019-02-20T10:53:04.413Z,86.48
2019-02-20T10:58:09.874Z,85.72
2019-02-20T11:03:15.374Z,85.31
2019-02-20T11:08:20.835Z,84.89
2019-02-20T11:13:26.550Z,85.24
2019-02-20T11:18:32.090Z,85.04
2019-02-20T11:23:37.812Z,85.20
2019-02-20T11:28:43.374Z,84.89
2019-02-20T11:33:48.910Z,84.73
2019-02-20T11:38:54.535Z,84.50
2019-02-20T11:44:00.194Z,84.22
2019-02-20T11:49:05.807Z,84.41
2019-02-20T11:54:11.614Z,84.48
2019-02-20T11:59:17.014Z,84.35
2019-02-20T12:04:22.518Z,84.56
2019-02-20T12:09:30.951Z,84.52
2019-02-20T12:14:36.891Z,84.66
2019-02-20T12:19:42.335Z,84.65
2019-02-20T12:24:47.969Z,84.46
2019-02-20T12:29:54.052Z,84.65
2019-02-20T12:34:59.753Z,84.75
2019-02-20T12:40:05.734Z,84.65
2019-02-20T12:45:11.458Z,84.28
2019-02-20T12:50:18.206Z,83.45
2019-02-20T12:55:23.635Z,83.70
2019-02-20T13:00:32.393Z,83.81
2019-02-20T13:05:38.066Z,84.15
2019-02-20T13:10:43.955Z,84.53
2019-02-20T13:15:49.494Z,84.78
2019-02-20T13:20:54.855Z,84.80
2019-02-20T13:26:00.414Z,84.71
2019-02-20T13:31:05.821Z,84.91
2019-02-20T13:36:11.718Z,85.14
2019-02-20T13:41:16.994Z,85.19
2019-02-20T13:46:22.581Z,85.45
2019-02-20T13:51:28.037Z,85.36
2019-02-20T13:56:33.695Z,85.52
2019-02-20T14:01:39.366Z,85.25
2019-02-20T14:06:44.975Z,85.13
2019-02-20T14:11:50.571Z,84.99
2019-02-20T14:16:55.955Z,84.84
2019-02-20T14:22:05.657Z,84.63
2019-02-20T14:27:11.352Z,84.93
2019-02-20T14:32:16.915Z,85.25
2019-02-20T14:37:22.235Z,85.45
2019-02-20T14:42:27.774Z,85.54
2019-02-20T14:47:33.675Z,85.45
2019-02-20T14:52:39.198Z,85.78
2019-02-20T14:57:44.695Z,85.81
2019-02-20T15:02:50.075Z,85.87
2019-02-20T15:07:55.975Z,85.87
2019-02-20T15:13:01.563Z,86.31
2019-02-20T15:18:07.250Z,86.48
2019-02-20T15:23:12.695Z,86.49
2019-02-20T15:28:19.786Z,86.62
2019-02-20T15:33:25.274Z,86.64
2019-02-20T15:38:33.934Z,86.67
2019-02-20T15:43:39.642Z,86.85
2019-02-20T15:48:45.289Z,86.97
2019-02-20T15:53:50.894Z,87.11
2019-02-20T15:58:56.635Z,87.18
2019-02-20T16:04:02.169Z,87.49
2019-02-20T16:09:08.294Z,87.55
2019-02-20T16:14:13.910Z,87.80
2019-02-20T16:19:19.510Z,87.89
2019-02-20T16:24:25.134Z,87.98
2019-02-20T16:29:30.570Z,88.04
2019-02-20T16:34:36.241Z,88.10
2019-02-20T16:39:41.710Z,88.08
2019-02-20T16:44:47.682Z,88.12
2019-02-20T16:49:53.232Z,88.27
2019-02-20T16:55:00.167Z,88.42
2019-02-20T17:00:06.250Z,88.52
2019-02-20T17:05:13.536Z,88.62
2019-02-20T17:10:19.511Z,88.84
2019-02-20T17:15:28.010Z,88.88
2019-02-20T17:20:34.578Z,89.04
2019-02-20T17:25:40.235Z,89.12
2019-02-20T17:30:46.128Z,89.01
2019-02-20T17:35:51.775Z,89.19
2019-02-20T17:40:57.542Z,89.25
2019-02-20T17:46:02.915Z,89.32
2019-02-20T17:51:08.532Z,89.43
2019-02-20T17:56:13.998Z,89.59
2019-02-20T18:01:19.518Z,89.64
2019-02-20T18:06:24.994Z,89.76
2019-02-20T18:11:30.555Z,89.97
2019-02-20T18:16:35.994Z,90.07
2019-02-20T18:21:41.582Z,90.17
2019-02-20T18:26:46.875Z,90.18
2019-02-20T18:31:52.335Z,90.22
2019-02-20T18:36:57.841Z,90.24
2019-02-20T18:42:03.436Z,90.24
2019-02-20T18:47:08.798Z,90.36
2019-02-20T18:52:14.327Z,90.35
2019-02-20T18:57:19.816Z,90.41
2019-02-20T19:02:25.196Z,90.41
2019-02-20T19:07:30.655Z,90.49
2019-02-20T19:12:47.306Z,90.54
2019-02-20T19:18:09.861Z,90.60
2019-02-20T19:23:29.383Z,90.74
2019-02-20T19:28:44.534Z,90.67
2019-02-20T19:34:12.659Z,90.72
2019-02-20T19:39:30.488Z,90.84
2019-02-20T19:44:44.543Z,90.87
2019-02-20T19:50:07.494Z,90.92
2019-02-20T19:55:24.338Z,91.00
2019-02-20T20:00:42.457Z,91.16
2019-02-20T20:06:01.397Z,91.22
2019-02-20T20:11:25.299Z,91.31
2019-02-20T20:16:43.336Z,91.41
2019-02-20T20:22:09.016Z,91.58
2019-02-20T20:27:30.803Z,91.66
2019-02-20T20:32:56.146Z,91.76
2019-02-20T20:38:15.517Z,91.79
2019-02-20T20:43:42.534Z,91.89
2019-02-20T20:48:58.394Z,91.95
2019-02-20T20:54:29.915Z,92.01
2019-02-20T20:59:48.373Z,92.08
2019-02-20T21:05:20.474Z,92.15
2019-02-20T21:10:46.297Z,92.23
2019-02-20T21:16:00.470Z,92.16
2019-02-20T21:21:18.034Z,92.24
2019-02-20T21:26:43.692Z,92.29
2019-02-20T21:31:56.582Z,92.32
2019-02-20T21:37:15.827Z,92.32
2019-02-20T21:42:33.274Z,92.46
2019-02-20T21:47:52.814Z,92.59
2019-02-20T21:53:31.182Z,92.70
2019-02-20T21:58:46.794Z,92.91
2019-02-20T22:04:09.425Z,93.06
2019-02-20T22:09:31.470Z,93.16
2019-02-20T22:14:54.293Z,93.18
2019-02-20T22:20:19.929Z,93.27
2019-02-20T22:25:38.390Z,93.28
2019-02-20T22:30:54.178Z,93.34
2019-02-20T22:36:17.296Z,93.37
2019-02-20T22:41:35.554Z,93.36
2019-02-20T22:46:58.432Z,93.40
2019-02-20T22:52:18.162Z,93.44
2019-02-20T22:57:45.304Z,93.39
2019-02-20T23:03:01.515Z,93.39
2019-02-20T23:08:16.354Z,93.29
2019-02-20T23:13:33.657Z,93.25
2019-02-20T23:18:41.051Z,93.21
2019-02-20T23:23:46.494Z,93.21
2019-02-20T23:28:51.874Z,93.21
2019-02-20T23:33:57.513Z,93.16
2019-02-20T23:39:03.034Z,93.10
2019-02-20T23:44:08.515Z,93.16
2019-02-20T23:49:13.917Z,93.12
2019-02-20T23:54:19.325Z,93.08
2019-02-20T23:59:24.685Z,93.02
